sensor_id;sensor_type;location;lat;lon;timestamp;P1;durP1;ratioP1;P2;durP2;ratioP2
10851;SDS011;5479;52.046;6.314;2023-04-06T00:03:16;8.27;;;5.33;;
10851;SDS011;5479;52.046;6.314;2023-04-06T00:05:46;8.37;;;5.87;;
10851;SDS011;5479;52.046;6.314;2023-04-06T00:08:14;7.63;;;5.57;;
10851;SDS011;5479;52.046;6.314;2023-04-06T00:10:42;9.83;;;6.17;;
10851;SDS011;5479;52.046;6.314;2023-04-06T00:13:11;9.03;;;5.97;;
10851;SDS011;5479;52.046;6.314;2023-04-06T00:15:41;8.40;;;5.93;;
10851;SDS011;5479;52.046;6.314;2023-04-06T00:18:10;12.67;;;6.70;;
10851;SDS011;5479;52.046;6.314;2023-04-06T00:20:39;10.77;;;6.90;;
10851;SDS011;5479;52.046;6.314;2023-04-06T00:23:08;11.00;;;7.00;;
10851;SDS011;5479;52.046;6.314;2023-04-06T00:25:36;9.13;;;6.43;;
10851;SDS011;5479;52.046;6.314;2023-04-06T00:28:04;9.27;;;6.17;;
10851;SDS011;5479;52.046;6.314;2023-04-06T00:30:32;7.70;;;5.70;;
10851;SDS011;5479;52.046;6.314;2023-04-06T00:33:00;9.63;;;6.87;;
10851;SDS011;5479;52.046;6.314;2023-04-06T00:35:29;9.47;;;6.23;;
10851;SDS011;5479;52.046;6.314;2023-04-06T00:38:05;9.20;;;6.77;;
10851;SDS011;5479;52.046;6.314;2023-04-06T00:40:33;9.83;;;6.60;;
10851;SDS011;5479;52.046;6.314;2023-04-06T00:43:01;11.10;;;7.30;;
10851;SDS011;5479;52.046;6.314;2023-04-06T00:45:29;8.97;;;6.37;;
10851;SDS011;5479;52.046;6.314;2023-04-06T00:47:57;9.97;;;6.33;;
10851;SDS011;5479;52.046;6.314;2023-04-06T00:50:25;9.17;;;6.13;;
10851;SDS011;5479;52.046;6.314;2023-04-06T00:52:55;11.53;;;6.80;;
10851;SDS011;5479;52.046;6.314;2023-04-06T00:55:23;9.13;;;5.57;;
10851;SDS011;5479;52.046;6.314;2023-04-06T00:57:50;8.80;;;5.90;;
10851;SDS011;5479;52.046;6.314;2023-04-06T01:00:18;8.83;;;6.20;;
10851;SDS011;5479;52.046;6.314;2023-04-06T01:02:47;9.43;;;5.83;;
10851;SDS011;5479;52.046;6.314;2023-04-06T01:05:14;9.53;;;6.53;;
10851;SDS011;5479;52.046;6.314;2023-04-06T01:07:42;9.30;;;6.20;;
10851;SDS011;5479;52.046;6.314;2023-04-06T01:10:11;9.57;;;6.37;;
10851;SDS011;5479;52.046;6.314;2023-04-06T01:12:52;8.87;;;5.83;;
10851;SDS011;5479;52.046;6.314;2023-04-06T01:15:19;9.97;;;6.47;;
10851;SDS011;5479;52.046;6.314;2023-04-06T01:17:49;8.77;;;6.30;;
10851;SDS011;5479;52.046;6.314;2023-04-06T01:20:17;9.53;;;6.70;;
10851;SDS011;5479;52.046;6.314;2023-04-06T01:22:46;9.23;;;6.33;;
10851;SDS011;5479;52.046;6.314;2023-04-06T01:25:14;9.13;;;5.93;;
10851;SDS011;5479;52.046;6.314;2023-04-06T01:27:42;9.50;;;6.47;;
10851;SDS011;5479;52.046;6.314;2023-04-06T01:30:10;8.53;;;6.00;;
10851;SDS011;5479;52.046;6.314;2023-04-06T01:32:38;8.37;;;5.90;;
10851;SDS011;5479;52.046;6.314;2023-04-06T01:35:06;7.93;;;5.67;;
10851;SDS011;5479;52.046;6.314;2023-04-06T01:37:35;8.17;;;6.00;;
10851;SDS011;5479;52.046;6.314;2023-04-06T01:40:05;10.17;;;7.03;;
10851;SDS011;5479;52.046;6.314;2023-04-06T01:42:34;8.70;;;6.33;;
10851;SDS011;5479;52.046;6.314;2023-04-06T01:45:06;11.03;;;7.17;;
10851;SDS011;5479;52.046;6.314;2023-04-06T01:47:41;11.73;;;7.27;;
10851;SDS011;5479;52.046;6.314;2023-04-06T01:50:11;11.10;;;7.13;;
10851;SDS011;5479;52.046;6.314;2023-04-06T01:52:39;8.83;;;6.37;;
10851;SDS011;5479;52.046;6.314;2023-04-06T01:55:10;9.77;;;6.80;;
10851;SDS011;5479;52.046;6.314;2023-04-06T01:57:38;9.97;;;6.63;;
10851;SDS011;5479;52.046;6.314;2023-04-06T02:00:07;9.00;;;6.70;;
10851;SDS011;5479;52.046;6.314;2023-04-06T02:02:36;9.73;;;6.87;;
10851;SDS011;5479;52.046;6.314;2023-04-06T02:05:06;9.50;;;6.60;;
10851;SDS011;5479;52.046;6.314;2023-04-06T02:07:34;10.57;;;6.47;;
10851;SDS011;5479;52.046;6.314;2023-04-06T02:10:02;9.53;;;6.50;;
10851;SDS011;5479;52.046;6.314;2023-04-06T02:15:01;8.70;;;5.40;;
10851;SDS011;5479;52.046;6.314;2023-04-06T02:17:29;8.23;;;6.00;;
10851;SDS011;5479;52.046;6.314;2023-04-06T02:19:58;8.57;;;6.00;;
10851;SDS011;5479;52.046;6.314;2023-04-06T02:22:26;9.67;;;5.80;;
10851;SDS011;5479;52.046;6.314;2023-04-06T02:27:28;10.27;;;7.20;;
10851;SDS011;5479;52.046;6.314;2023-04-06T02:30:05;10.00;;;6.50;;
10851;SDS011;5479;52.046;6.314;2023-04-06T02:32:34;10.53;;;7.03;;
10851;SDS011;5479;52.046;6.314;2023-04-06T02:35:03;9.97;;;6.97;;
10851;SDS011;5479;52.046;6.314;2023-04-06T02:37:32;11.80;;;7.57;;
10851;SDS011;5479;52.046;6.314;2023-04-06T02:40:00;10.10;;;6.73;;
10851;SDS011;5479;52.046;6.314;2023-04-06T02:42:28;9.97;;;6.50;;
10851;SDS011;5479;52.046;6.314;2023-04-06T02:44:56;10.63;;;6.60;;
10851;SDS011;5479;52.046;6.314;2023-04-06T02:47:28;10.73;;;7.10;;
10851;SDS011;5479;52.046;6.314;2023-04-06T02:49:56;10.73;;;6.63;;
10851;SDS011;5479;52.046;6.314;2023-04-06T02:52:23;10.47;;;6.97;;
10851;SDS011;5479;52.046;6.314;2023-04-06T02:54:53;10.00;;;6.97;;
10851;SDS011;5479;52.046;6.314;2023-04-06T02:57:21;9.87;;;7.00;;
10851;SDS011;5479;52.046;6.314;2023-04-06T02:59:49;11.87;;;6.93;;
10851;SDS011;5479;52.046;6.314;2023-04-06T03:02:17;11.10;;;7.30;;
10851;SDS011;5479;52.046;6.314;2023-04-06T03:04:46;10.80;;;7.80;;
10851;SDS011;5479;52.046;6.314;2023-04-06T03:07:15;11.63;;;7.17;;
10851;SDS011;5479;52.046;6.314;2023-04-06T03:09:43;11.10;;;7.80;;
10851;SDS011;5479;52.046;6.314;2023-04-06T03:12:11;10.83;;;7.03;;
10851;SDS011;5479;52.046;6.314;2023-04-06T03:14:39;9.63;;;6.70;;
10851;SDS011;5479;52.046;6.314;2023-04-06T03:17:08;11.40;;;7.57;;
10851;SDS011;5479;52.046;6.314;2023-04-06T03:19:36;9.70;;;7.17;;
10851;SDS011;5479;52.046;6.314;2023-04-06T03:22:05;11.73;;;7.53;;
10851;SDS011;5479;52.046;6.314;2023-04-06T03:24:39;10.03;;;7.07;;
10851;SDS011;5479;52.046;6.314;2023-04-06T03:27:08;13.67;;;7.40;;
10851;SDS011;5479;52.046;6.314;2023-04-06T03:29:36;9.73;;;6.93;;
10851;SDS011;5479;52.046;6.314;2023-04-06T03:32:09;11.17;;;7.90;;
10851;SDS011;5479;52.046;6.314;2023-04-06T03:34:37;10.10;;;7.70;;
10851;SDS011;5479;52.046;6.314;2023-04-06T03:37:07;10.20;;;7.47;;
10851;SDS011;5479;52.046;6.314;2023-04-06T03:39:36;11.73;;;7.50;;
10851;SDS011;5479;52.046;6.314;2023-04-06T03:42:04;11.63;;;7.63;;
10851;SDS011;5479;52.046;6.314;2023-04-06T03:44:32;10.03;;;7.23;;
10851;SDS011;5479;52.046;6.314;2023-04-06T03:47:00;12.97;;;7.77;;
10851;SDS011;5479;52.046;6.314;2023-04-06T03:49:28;10.67;;;8.17;;
10851;SDS011;5479;52.046;6.314;2023-04-06T03:51:56;11.77;;;8.13;;
10851;SDS011;5479;52.046;6.314;2023-04-06T03:54:26;10.93;;;7.60;;
10851;SDS011;5479;52.046;6.314;2023-04-06T03:56:54;12.43;;;8.37;;
10851;SDS011;5479;52.046;6.314;2023-04-06T03:59:24;10.70;;;7.83;;
10851;SDS011;5479;52.046;6.314;2023-04-06T04:01:52;10.97;;;8.00;;
10851;SDS011;5479;52.046;6.314;2023-04-06T04:04:20;12.37;;;8.40;;
10851;SDS011;5479;52.046;6.314;2023-04-06T04:06:50;12.80;;;8.33;;
10851;SDS011;5479;52.046;6.314;2023-04-06T04:09:20;9.90;;;7.77;;
10851;SDS011;5479;52.046;6.314;2023-04-06T04:11:49;12.20;;;8.67;;
10851;SDS011;5479;52.046;6.314;2023-04-06T04:14:17;11.40;;;7.83;;
10851;SDS011;5479;52.046;6.314;2023-04-06T04:16:49;11.77;;;8.20;;
10851;SDS011;5479;52.046;6.314;2023-04-06T04:19:17;11.00;;;8.10;;
10851;SDS011;5479;52.046;6.314;2023-04-06T04:21:46;14.57;;;8.57;;
10851;SDS011;5479;52.046;6.314;2023-04-06T04:24:14;11.20;;;7.87;;
10851;SDS011;5479;52.046;6.314;2023-04-06T04:26:42;12.10;;;8.37;;
10851;SDS011;5479;52.046;6.314;2023-04-06T04:29:12;12.37;;;7.50;;
10851;SDS011;5479;52.046;6.314;2023-04-06T04:31:40;11.20;;;7.97;;
10851;SDS011;5479;52.046;6.314;2023-04-06T04:34:08;11.03;;;8.17;;
10851;SDS011;5479;52.046;6.314;2023-04-06T04:36:37;12.53;;;8.80;;
10851;SDS011;5479;52.046;6.314;2023-04-06T04:39:04;12.17;;;8.23;;
10851;SDS011;5479;52.046;6.314;2023-04-06T04:41:33;11.80;;;8.63;;
10851;SDS011;5479;52.046;6.314;2023-04-06T04:44:01;13.23;;;8.77;;
10851;SDS011;5479;52.046;6.314;2023-04-06T04:46:31;12.93;;;8.37;;
10851;SDS011;5479;52.046;6.314;2023-04-06T04:48:59;13.23;;;8.37;;
10851;SDS011;5479;52.046;6.314;2023-04-06T04:51:27;13.70;;;8.23;;
10851;SDS011;5479;52.046;6.314;2023-04-06T04:53:55;12.23;;;8.40;;
10851;SDS011;5479;52.046;6.314;2023-04-06T04:56:23;11.87;;;8.37;;
10851;SDS011;5479;52.046;6.314;2023-04-06T04:58:51;12.57;;;8.30;;
10851;SDS011;5479;52.046;6.314;2023-04-06T05:01:19;11.80;;;8.53;;
10851;SDS011;5479;52.046;6.314;2023-04-06T05:03:48;10.37;;;7.77;;
10851;SDS011;5479;52.046;6.314;2023-04-06T05:06:16;11.47;;;7.70;;
10851;SDS011;5479;52.046;6.314;2023-04-06T05:08:45;13.03;;;8.67;;
10851;SDS011;5479;52.046;6.314;2023-04-06T05:11:13;13.13;;;8.93;;
10851;SDS011;5479;52.046;6.314;2023-04-06T05:13:41;11.87;;;8.40;;
10851;SDS011;5479;52.046;6.314;2023-04-06T05:16:08;12.63;;;8.43;;
10851;SDS011;5479;52.046;6.314;2023-04-06T05:18:37;10.27;;;7.57;;
10851;SDS011;5479;52.046;6.314;2023-04-06T05:21:06;11.60;;;8.23;;
10851;SDS011;5479;52.046;6.314;2023-04-06T05:23:34;11.73;;;8.17;;
10851;SDS011;5479;52.046;6.314;2023-04-06T05:26:02;11.70;;;8.50;;
10851;SDS011;5479;52.046;6.314;2023-04-06T05:28:30;12.03;;;8.07;;
10851;SDS011;5479;52.046;6.314;2023-04-06T05:30:59;12.90;;;8.23;;
10851;SDS011;5479;52.046;6.314;2023-04-06T05:33:27;11.17;;;8.13;;
10851;SDS011;5479;52.046;6.314;2023-04-06T05:35:56;10.77;;;7.80;;
10851;SDS011;5479;52.046;6.314;2023-04-06T05:38:25;11.63;;;7.57;;
10851;SDS011;5479;52.046;6.314;2023-04-06T05:40:53;11.43;;;8.10;;
10851;SDS011;5479;52.046;6.314;2023-04-06T05:43:22;11.07;;;7.87;;
10851;SDS011;5479;52.046;6.314;2023-04-06T05:45:49;13.40;;;9.17;;
10851;SDS011;5479;52.046;6.314;2023-04-06T05:48:17;11.60;;;7.93;;
10851;SDS011;5479;52.046;6.314;2023-04-06T05:50:47;11.47;;;8.33;;
10851;SDS011;5479;52.046;6.314;2023-04-06T05:53:16;10.60;;;8.27;;
10851;SDS011;5479;52.046;6.314;2023-04-06T05:55:48;11.77;;;8.47;;
10851;SDS011;5479;52.046;6.314;2023-04-06T05:58:16;10.77;;;8.17;;
10851;SDS011;5479;52.046;6.314;2023-04-06T06:00:44;11.27;;;8.70;;
10851;SDS011;5479;52.046;6.314;2023-04-06T06:03:13;11.40;;;8.10;;
10851;SDS011;5479;52.046;6.314;2023-04-06T06:05:41;14.67;;;8.87;;
10851;SDS011;5479;52.046;6.314;2023-04-06T06:08:09;11.77;;;8.33;;
10851;SDS011;5479;52.046;6.314;2023-04-06T06:10:38;12.57;;;8.63;;
10851;SDS011;5479;52.046;6.314;2023-04-06T06:13:07;12.67;;;8.73;;
10851;SDS011;5479;52.046;6.314;2023-04-06T06:15:35;11.70;;;8.47;;
10851;SDS011;5479;52.046;6.314;2023-04-06T06:18:03;13.80;;;9.27;;
10851;SDS011;5479;52.046;6.314;2023-04-06T06:20:32;12.80;;;9.00;;
10851;SDS011;5479;52.046;6.314;2023-04-06T06:23:01;12.90;;;9.03;;
10851;SDS011;5479;52.046;6.314;2023-04-06T06:25:29;14.27;;;9.87;;
10851;SDS011;5479;52.046;6.314;2023-04-06T06:27:59;16.33;;;10.73;;
10851;SDS011;5479;52.046;6.314;2023-04-06T06:30:28;15.57;;;10.20;;
10851;SDS011;5479;52.046;6.314;2023-04-06T06:32:56;12.83;;;9.10;;
10851;SDS011;5479;52.046;6.314;2023-04-06T06:35:24;12.40;;;8.90;;
10851;SDS011;5479;52.046;6.314;2023-04-06T06:37:52;13.50;;;9.17;;
10851;SDS011;5479;52.046;6.314;2023-04-06T06:40:19;13.40;;;9.43;;
10851;SDS011;5479;52.046;6.314;2023-04-06T06:42:50;13.97;;;9.70;;
10851;SDS011;5479;52.046;6.314;2023-04-06T06:45:18;14.27;;;9.77;;
10851;SDS011;5479;52.046;6.314;2023-04-06T06:47:47;13.67;;;9.53;;
10851;SDS011;5479;52.046;6.314;2023-04-06T06:50:15;12.63;;;9.63;;
10851;SDS011;5479;52.046;6.314;2023-04-06T06:52:43;15.10;;;9.80;;
10851;SDS011;5479;52.046;6.314;2023-04-06T06:55:11;13.27;;;9.30;;
10851;SDS011;5479;52.046;6.314;2023-04-06T06:57:39;15.67;;;9.63;;
10851;SDS011;5479;52.046;6.314;2023-04-06T07:00:09;14.50;;;10.50;;
10851;SDS011;5479;52.046;6.314;2023-04-06T07:02:38;14.50;;;10.37;;
10851;SDS011;5479;52.046;6.314;2023-04-06T07:05:07;15.50;;;10.77;;
10851;SDS011;5479;52.046;6.314;2023-04-06T07:07:36;14.50;;;10.17;;
10851;SDS011;5479;52.046;6.314;2023-04-06T07:10:04;11.47;;;9.80;;
10851;SDS011;5479;52.046;6.314;2023-04-06T07:12:33;13.60;;;10.20;;
10851;SDS011;5479;52.046;6.314;2023-04-06T07:15:02;13.47;;;10.57;;
10851;SDS011;5479;52.046;6.314;2023-04-06T07:17:31;13.93;;;10.70;;
10851;SDS011;5479;52.046;6.314;2023-04-06T07:19:59;14.03;;;10.80;;
10851;SDS011;5479;52.046;6.314;2023-04-06T07:22:28;14.00;;;10.17;;
10851;SDS011;5479;52.046;6.314;2023-04-06T07:24:58;17.70;;;10.80;;
10851;SDS011;5479;52.046;6.314;2023-04-06T07:27:26;15.20;;;11.10;;
10851;SDS011;5479;52.046;6.314;2023-04-06T07:29:54;16.33;;;11.60;;
10851;SDS011;5479;52.046;6.314;2023-04-06T07:32:22;14.67;;;11.23;;
10851;SDS011;5479;52.046;6.314;2023-04-06T07:34:50;15.27;;;11.03;;
10851;SDS011;5479;52.046;6.314;2023-04-06T07:37:18;14.17;;;11.47;;
10851;SDS011;5479;52.046;6.314;2023-04-06T07:39:47;14.07;;;10.10;;
10851;SDS011;5479;52.046;6.314;2023-04-06T07:42:16;16.30;;;10.47;;
10851;SDS011;5479;52.046;6.314;2023-04-06T07:44:45;12.77;;;10.93;;
10851;SDS011;5479;52.046;6.314;2023-04-06T07:47:13;15.07;;;10.03;;
10851;SDS011;5479;52.046;6.314;2023-04-06T07:49:41;14.07;;;10.57;;
10851;SDS011;5479;52.046;6.314;2023-04-06T07:52:10;14.20;;;10.83;;
10851;SDS011;5479;52.046;6.314;2023-04-06T07:54:40;15.20;;;10.37;;
10851;SDS011;5479;52.046;6.314;2023-04-06T07:57:09;17.90;;;11.57;;
10851;SDS011;5479;52.046;6.314;2023-04-06T07:59:39;15.67;;;11.13;;
10851;SDS011;5479;52.046;6.314;2023-04-06T08:02:07;17.37;;;11.17;;
10851;SDS011;5479;52.046;6.314;2023-04-06T08:04:38;14.20;;;10.33;;
10851;SDS011;5479;52.046;6.314;2023-04-06T08:07:08;13.90;;;11.00;;
10851;SDS011;5479;52.046;6.314;2023-04-06T08:09:36;13.63;;;11.00;;
10851;SDS011;5479;52.046;6.314;2023-04-06T08:12:04;14.73;;;10.73;;
10851;SDS011;5479;52.046;6.314;2023-04-06T08:14:34;15.13;;;11.13;;
10851;SDS011;5479;52.046;6.314;2023-04-06T08:17:02;15.73;;;10.90;;
10851;SDS011;5479;52.046;6.314;2023-04-06T08:19:30;14.53;;;10.83;;
10851;SDS011;5479;52.046;6.314;2023-04-06T08:21:58;14.93;;;10.70;;
10851;SDS011;5479;52.046;6.314;2023-04-06T08:24:26;15.20;;;11.30;;
10851;SDS011;5479;52.046;6.314;2023-04-06T08:26:53;14.90;;;10.93;;
10851;SDS011;5479;52.046;6.314;2023-04-06T08:29:22;13.10;;;10.47;;
10851;SDS011;5479;52.046;6.314;2023-04-06T08:31:52;14.47;;;11.17;;
10851;SDS011;5479;52.046;6.314;2023-04-06T08:34:20;15.40;;;11.00;;
10851;SDS011;5479;52.046;6.314;2023-04-06T08:36:49;13.13;;;10.60;;
10851;SDS011;5479;52.046;6.314;2023-04-06T08:39:17;14.43;;;11.30;;
10851;SDS011;5479;52.046;6.314;2023-04-06T08:41:50;14.60;;;10.93;;
10851;SDS011;5479;52.046;6.314;2023-04-06T08:44:19;13.90;;;11.63;;
10851;SDS011;5479;52.046;6.314;2023-04-06T08:46:47;16.53;;;12.33;;
10851;SDS011;5479;52.046;6.314;2023-04-06T08:49:20;15.20;;;11.80;;
10851;SDS011;5479;52.046;6.314;2023-04-06T08:51:49;16.70;;;11.90;;
10851;SDS011;5479;52.046;6.314;2023-04-06T08:54:17;16.03;;;11.73;;
10851;SDS011;5479;52.046;6.314;2023-04-06T08:56:44;13.27;;;11.17;;
10851;SDS011;5479;52.046;6.314;2023-04-06T08:59:13;14.23;;;11.50;;
10851;SDS011;5479;52.046;6.314;2023-04-06T09:01:41;14.50;;;11.60;;
10851;SDS011;5479;52.046;6.314;2023-04-06T09:04:12;14.60;;;11.60;;
10851;SDS011;5479;52.046;6.314;2023-04-06T09:06:41;15.43;;;11.83;;
10851;SDS011;5479;52.046;6.314;2023-04-06T09:09:11;14.73;;;11.40;;
10851;SDS011;5479;52.046;6.314;2023-04-06T09:11:43;13.73;;;11.10;;
10851;SDS011;5479;52.046;6.314;2023-04-06T09:14:15;14.10;;;11.03;;
10851;SDS011;5479;52.046;6.314;2023-04-06T09:16:46;15.03;;;11.87;;
10851;SDS011;5479;52.046;6.314;2023-04-06T09:19:15;14.17;;;11.83;;
10851;SDS011;5479;52.046;6.314;2023-04-06T09:21:44;16.87;;;12.40;;
10851;SDS011;5479;52.046;6.314;2023-04-06T09:24:12;16.60;;;12.73;;
10851;SDS011;5479;52.046;6.314;2023-04-06T09:26:46;15.13;;;11.63;;
10851;SDS011;5479;52.046;6.314;2023-04-06T09:29:24;15.77;;;12.13;;
10851;SDS011;5479;52.046;6.314;2023-04-06T09:32:01;14.50;;;12.33;;
10851;SDS011;5479;52.046;6.314;2023-04-06T09:34:32;17.07;;;11.80;;
10851;SDS011;5479;52.046;6.314;2023-04-06T09:37:11;16.37;;;12.33;;
10851;SDS011;5479;52.046;6.314;2023-04-06T09:39:40;15.87;;;11.93;;
10851;SDS011;5479;52.046;6.314;2023-04-06T09:42:08;15.80;;;11.50;;
10851;SDS011;5479;52.046;6.314;2023-04-06T09:44:36;16.23;;;11.83;;
10851;SDS011;5479;52.046;6.314;2023-04-06T09:47:04;15.93;;;12.17;;
10851;SDS011;5479;52.046;6.314;2023-04-06T09:49:34;15.13;;;11.43;;
10851;SDS011;5479;52.046;6.314;2023-04-06T09:52:04;13.13;;;11.10;;
10851;SDS011;5479;52.046;6.314;2023-04-06T09:54:34;14.23;;;11.00;;
10851;SDS011;5479;52.046;6.314;2023-04-06T09:57:04;14.83;;;12.10;;
10851;SDS011;5479;52.046;6.314;2023-04-06T09:59:42;14.53;;;11.63;;
10851;SDS011;5479;52.046;6.314;2023-04-06T10:02:18;14.20;;;12.07;;
10851;SDS011;5479;52.046;6.314;2023-04-06T10:04:55;15.80;;;11.40;;
10851;SDS011;5479;52.046;6.314;2023-04-06T10:07:28;15.67;;;12.07;;
10851;SDS011;5479;52.046;6.314;2023-04-06T10:09:58;16.80;;;11.43;;
10851;SDS011;5479;52.046;6.314;2023-04-06T10:12:28;14.33;;;11.50;;
10851;SDS011;5479;52.046;6.314;2023-04-06T10:14:56;15.40;;;11.63;;
10851;SDS011;5479;52.046;6.314;2023-04-06T10:17:24;15.27;;;11.87;;
10851;SDS011;5479;52.046;6.314;2023-04-06T10:19:52;18.23;;;12.13;;
10851;SDS011;5479;52.046;6.314;2023-04-06T10:22:24;15.37;;;11.87;;
10851;SDS011;5479;52.046;6.314;2023-04-06T10:25:00;16.07;;;11.90;;
10851;SDS011;5479;52.046;6.314;2023-04-06T10:27:28;15.23;;;12.20;;
10851;SDS011;5479;52.046;6.314;2023-04-06T10:30:00;15.50;;;12.43;;
10851;SDS011;5479;52.046;6.314;2023-04-06T10:32:32;16.53;;;12.63;;
10851;SDS011;5479;52.046;6.314;2023-04-06T10:35:05;17.73;;;12.70;;
10851;SDS011;5479;52.046;6.314;2023-04-06T10:37:48;16.20;;;12.57;;
10851;SDS011;5479;52.046;6.314;2023-04-06T10:40:18;16.10;;;13.13;;
10851;SDS011;5479;52.046;6.314;2023-04-06T10:42:47;15.50;;;12.50;;
10851;SDS011;5479;52.046;6.314;2023-04-06T10:45:21;16.43;;;12.73;;
10851;SDS011;5479;52.046;6.314;2023-04-06T10:47:52;15.93;;;12.60;;
10851;SDS011;5479;52.046;6.314;2023-04-06T10:50:20;16.07;;;12.80;;
10851;SDS011;5479;52.046;6.314;2023-04-06T10:53:03;16.63;;;12.83;;
10851;SDS011;5479;52.046;6.314;2023-04-06T10:55:31;15.53;;;12.73;;
10851;SDS011;5479;52.046;6.314;2023-04-06T10:57:59;15.47;;;12.30;;
10851;SDS011;5479;52.046;6.314;2023-04-06T11:00:27;16.07;;;12.37;;
10851;SDS011;5479;52.046;6.314;2023-04-06T11:02:58;15.20;;;12.47;;
10851;SDS011;5479;52.046;6.314;2023-04-06T11:05:27;16.57;;;12.80;;
10851;SDS011;5479;52.046;6.314;2023-04-06T11:07:55;17.47;;;12.43;;
10851;SDS011;5479;52.046;6.314;2023-04-06T11:10:25;17.17;;;13.33;;
10851;SDS011;5479;52.046;6.314;2023-04-06T11:12:53;16.53;;;13.53;;
10851;SDS011;5479;52.046;6.314;2023-04-06T11:15:21;15.10;;;12.77;;
10851;SDS011;5479;52.046;6.314;2023-04-06T11:17:49;16.97;;;12.77;;
10851;SDS011;5479;52.046;6.314;2023-04-06T11:20:19;16.53;;;12.13;;
10851;SDS011;5479;52.046;6.314;2023-04-06T11:22:50;17.67;;;13.23;;
10851;SDS011;5479;52.046;6.314;2023-04-06T11:25:18;17.23;;;12.30;;
10851;SDS011;5479;52.046;6.314;2023-04-06T11:27:48;14.43;;;12.03;;
10851;SDS011;5479;52.046;6.314;2023-04-06T11:30:16;16.37;;;12.50;;
10851;SDS011;5479;52.046;6.314;2023-04-06T11:32:45;16.70;;;12.03;;
10851;SDS011;5479;52.046;6.314;2023-04-06T11:35:19;15.70;;;12.27;;
10851;SDS011;5479;52.046;6.314;2023-04-06T11:37:48;14.67;;;11.53;;
10851;SDS011;5479;52.046;6.314;2023-04-06T11:40:20;17.17;;;12.63;;
10851;SDS011;5479;52.046;6.314;2023-04-06T11:42:53;16.47;;;11.23;;
10851;SDS011;5479;52.046;6.314;2023-04-06T11:45:22;13.83;;;9.90;;
10851;SDS011;5479;52.046;6.314;2023-04-06T11:47:57;11.50;;;8.30;;
10851;SDS011;5479;52.046;6.314;2023-04-06T11:50:31;11.40;;;8.50;;
10851;SDS011;5479;52.046;6.314;2023-04-06T11:53:01;14.60;;;9.40;;
10851;SDS011;5479;52.046;6.314;2023-04-06T11:55:36;15.07;;;10.00;;
10851;SDS011;5479;52.046;6.314;2023-04-06T11:58:06;11.90;;;8.90;;
10851;SDS011;5479;52.046;6.314;2023-04-06T12:00:35;12.57;;;10.00;;
10851;SDS011;5479;52.046;6.314;2023-04-06T12:03:03;14.17;;;10.23;;
10851;SDS011;5479;52.046;6.314;2023-04-06T12:05:32;12.53;;;9.97;;
10851;SDS011;5479;52.046;6.314;2023-04-06T12:08:00;12.80;;;10.10;;
10851;SDS011;5479;52.046;6.314;2023-04-06T12:10:28;15.90;;;10.67;;
10851;SDS011;5479;52.046;6.314;2023-04-06T12:12:56;13.83;;;9.63;;
10851;SDS011;5479;52.046;6.314;2023-04-06T12:15:28;13.77;;;10.33;;
10851;SDS011;5479;52.046;6.314;2023-04-06T12:17:56;15.53;;;10.17;;
10851;SDS011;5479;52.046;6.314;2023-04-06T12:20:27;12.93;;;10.37;;
10851;SDS011;5479;52.046;6.314;2023-04-06T12:22:55;13.60;;;10.87;;
10851;SDS011;5479;52.046;6.314;2023-04-06T12:25:23;14.10;;;10.63;;
10851;SDS011;5479;52.046;6.314;2023-04-06T12:27:51;12.87;;;10.60;;
10851;SDS011;5479;52.046;6.314;2023-04-06T12:30:19;12.70;;;10.37;;
10851;SDS011;5479;52.046;6.314;2023-04-06T12:32:49;15.77;;;11.17;;
10851;SDS011;5479;52.046;6.314;2023-04-06T12:35:17;13.97;;;10.97;;
10851;SDS011;5479;52.046;6.314;2023-04-06T12:37:46;15.00;;;11.30;;
10851;SDS011;5479;52.046;6.314;2023-04-06T12:40:14;12.90;;;10.67;;
10851;SDS011;5479;52.046;6.314;2023-04-06T12:42:42;13.77;;;11.17;;
10851;SDS011;5479;52.046;6.314;2023-04-06T12:45:12;14.50;;;11.67;;
10851;SDS011;5479;52.046;6.314;2023-04-06T12:47:40;14.70;;;11.10;;
10851;SDS011;5479;52.046;6.314;2023-04-06T12:50:10;12.40;;;11.00;;
10851;SDS011;5479;52.046;6.314;2023-04-06T12:52:39;15.13;;;11.50;;
10851;SDS011;5479;52.046;6.314;2023-04-06T12:55:07;13.80;;;11.10;;
10851;SDS011;5479;52.046;6.314;2023-04-06T12:57:36;13.53;;;11.17;;
10851;SDS011;5479;52.046;6.314;2023-04-06T13:00:05;13.17;;;10.17;;
10851;SDS011;5479;52.046;6.314;2023-04-06T13:02:33;15.57;;;11.00;;
10851;SDS011;5479;52.046;6.314;2023-04-06T13:05:02;14.13;;;11.20;;
10851;SDS011;5479;52.046;6.314;2023-04-06T13:07:31;13.80;;;11.60;;
10851;SDS011;5479;52.046;6.314;2023-04-06T13:09:59;14.00;;;11.37;;
10851;SDS011;5479;52.046;6.314;2023-04-06T13:12:27;13.23;;;10.17;;
10851;SDS011;5479;52.046;6.314;2023-04-06T13:14:55;13.10;;;10.37;;
10851;SDS011;5479;52.046;6.314;2023-04-06T13:17:23;13.03;;;10.40;;
10851;SDS011;5479;52.046;6.314;2023-04-06T13:19:54;13.13;;;10.80;;
10851;SDS011;5479;52.046;6.314;2023-04-06T13:22:22;15.67;;;10.40;;
10851;SDS011;5479;52.046;6.314;2023-04-06T13:24:51;12.33;;;8.77;;
10851;SDS011;5479;52.046;6.314;2023-04-06T13:27:20;12.03;;;9.00;;
10851;SDS011;5479;52.046;6.314;2023-04-06T13:29:49;10.67;;;8.50;;
10851;SDS011;5479;52.046;6.314;2023-04-06T13:32:17;11.30;;;8.67;;
10851;SDS011;5479;52.046;6.314;2023-04-06T13:34:45;12.03;;;8.90;;
10851;SDS011;5479;52.046;6.314;2023-04-06T13:37:15;12.13;;;8.87;;
10851;SDS011;5479;52.046;6.314;2023-04-06T13:39:43;13.77;;;9.30;;
10851;SDS011;5479;52.046;6.314;2023-04-06T13:42:12;11.87;;;9.00;;
10851;SDS011;5479;52.046;6.314;2023-04-06T13:44:40;11.57;;;9.07;;
10851;SDS011;5479;52.046;6.314;2023-04-06T13:47:08;12.47;;;9.10;;
10851;SDS011;5479;52.046;6.314;2023-04-06T13:49:36;11.87;;;8.87;;
10851;SDS011;5479;52.046;6.314;2023-04-06T13:52:04;10.97;;;8.57;;
10851;SDS011;5479;52.046;6.314;2023-04-06T13:54:32;12.20;;;8.33;;
10851;SDS011;5479;52.046;6.314;2023-04-06T13:56:59;11.83;;;8.63;;
10851;SDS011;5479;52.046;6.314;2023-04-06T13:59:32;12.07;;;8.20;;
10851;SDS011;5479;52.046;6.314;2023-04-06T14:02:01;11.67;;;8.33;;
10851;SDS011;5479;52.046;6.314;2023-04-06T14:04:29;12.17;;;8.40;;
10851;SDS011;5479;52.046;6.314;2023-04-06T14:06:57;13.13;;;8.80;;
10851;SDS011;5479;52.046;6.314;2023-04-06T14:09:25;11.33;;;8.20;;
10851;SDS011;5479;52.046;6.314;2023-04-06T14:11:54;13.77;;;8.73;;
10851;SDS011;5479;52.046;6.314;2023-04-06T14:14:22;11.50;;;8.43;;
10851;SDS011;5479;52.046;6.314;2023-04-06T14:16:53;14.00;;;8.80;;
10851;SDS011;5479;52.046;6.314;2023-04-06T14:19:21;13.57;;;8.67;;
10851;SDS011;5479;52.046;6.314;2023-04-06T14:21:48;11.93;;;8.47;;
10851;SDS011;5479;52.046;6.314;2023-04-06T14:24:17;10.60;;;7.83;;
10851;SDS011;5479;52.046;6.314;2023-04-06T14:26:45;10.57;;;7.90;;
10851;SDS011;5479;52.046;6.314;2023-04-06T14:29:13;10.40;;;7.93;;
10851;SDS011;5479;52.046;6.314;2023-04-06T14:31:42;12.17;;;7.80;;
10851;SDS011;5479;52.046;6.314;2023-04-06T14:34:14;10.63;;;7.80;;
10851;SDS011;5479;52.046;6.314;2023-04-06T14:36:43;12.07;;;7.10;;
10851;SDS011;5479;52.046;6.314;2023-04-06T14:39:10;10.77;;;7.60;;
10851;SDS011;5479;52.046;6.314;2023-04-06T14:41:39;10.60;;;7.70;;
10851;SDS011;5479;52.046;6.314;2023-04-06T14:44:08;11.27;;;7.97;;
10851;SDS011;5479;52.046;6.314;2023-04-06T14:46:39;10.63;;;7.93;;
10851;SDS011;5479;52.046;6.314;2023-04-06T14:49:07;10.90;;;7.67;;
10851;SDS011;5479;52.046;6.314;2023-04-06T14:51:37;11.23;;;7.80;;
10851;SDS011;5479;52.046;6.314;2023-04-06T14:54:06;10.60;;;7.83;;
10851;SDS011;5479;52.046;6.314;2023-04-06T14:56:34;11.50;;;8.27;;
10851;SDS011;5479;52.046;6.314;2023-04-06T14:59:04;11.93;;;8.20;;
10851;SDS011;5479;52.046;6.314;2023-04-06T15:01:33;12.20;;;8.33;;